Aérodrome :
LOGIN :

S'inscrire | Disclaimer

   EN    FR    IT 

 










Légende :    VFR   VFR Marginal   IFR   IFR Intensif   IFR Très Intensif
Visi : 
Plafond : 
>= 8 km
>= 3000ft
5 à 8 km
1000 à 3000 ft
1500m à 5 km
500 à 1000 ft
800 à 1500m
200 à 500 ft
< 800m
< 200 ft
Symboles :   Orages  Brouillard  Fortes neiges  Fortes précipitations  Vent > 20 kt
SIGMETs :   Divers  Orages  Givrage  Turbulence  Onde Orograph.  Cendres Volcan.







- Altitude de l'aérodrome : 194 ft


EBCV - Chièvres

DERNIER METAR :
  • 180625Z AUTO 20005KT 9999 -RA SCT008/// SCT020/// OVC077/// 17/16 Q1013 GRN

METARs EXPIRÉS :
  • 180555Z AUTO 18003KT 9999 -RA BKN010/// BKN017/// OVC068/// 17/16 Q1013 GRN
  • 180549Z AUTO 19003KT 9999 -RA SCT010/// BKN015/// BKN055/// 17/16 Q1013 GRN
  • 180533Z AUTO 18004KT 9999 BKN017/// BKN055/// 17/16 Q1014 WHT
  • 180525Z AUTO 18003KT 9999 FEW014/// BKN028/// BKN048/// 17/16 Q1014 BLU
  • 180455Z AUTO 18004KT 9999 FEW015/// SCT034/// OVC048/// 17/16 Q1013 BLU
  • 180425Z AUTO VRB02KT 9999 -DZ BKN015/// BKN035/// OVC044/// 17/16 Q1013 WHT
  • 180355Z AUTO 21003KT 9999 SCT018/// BKN038/// OVC058/// 17/16 Q1013 WHT

TAF TAF EBCV
Valide du 18 à 07h jusqu'au 18 à 16h UTC


180541Z 1807/1816 20008KT 8000 SCT015 BKN025
TEMPO 1807/1814 20015G25KT 4000 RA SHRA SCT012 BKN018
PROB30
TEMPO 1807/1812 20018G30KT 2000 +SHRA TSRA SCT008 BKN015
BECMG 1814/1816 24010KT 9999 SCT030 BY EBWM
Pas de NOTAMs connus pour ce terrain.



MET'MAP, la Météo Aéronautique d'un coup d'oeil ! - Copyright ORBIFLY Décembre 2007 - Disclaimer

ORBIFLY MET'MAP TEAM :

Programmation & Développement : Alexandra Zaïnal
Conception & Développement : Baudouin d'Aumeries
Co-Programmation & Développement : Marc-Olivier Méhu
Soutien technique & logistique : Manuel Goepfert

Contact : metmap@orbifly.com




SOURCES & CREDITS :

   NOAA